createdAt,value
2019-02-21T00:00:47.309Z,19.37
2019-02-21T00:01:52.515Z,24.27
2019-02-21T00:02:56.149Z,18.70
2019-02-21T00:03:59.821Z,24.93
2019-02-21T00:05:03.923Z,20.70
2019-02-21T00:06:08.071Z,22.50
2019-02-21T00:07:11.705Z,20.47
2019-02-21T00:08:15.350Z,25.27
2019-02-21T00:09:19.097Z,23.90
2019-02-21T00:10:22.728Z,18.03
2019-02-21T00:11:26.366Z,23.33
2019-02-21T00:12:30.020Z,21.75
2019-02-21T00:13:33.667Z,22.97
2019-02-21T00:14:37.856Z,22.30
2019-02-21T00:15:41.506Z,21.23
2019-02-21T00:16:45.074Z,21.05
2019-02-21T00:17:48.712Z,22.83
2019-02-21T00:18:52.350Z,22.70
2019-02-21T00:19:56.555Z,23.53
2019-02-21T00:21:00.285Z,23.33
2019-02-21T00:22:03.923Z,23.10
2019-02-21T00:23:07.577Z,25.37
2019-02-21T00:24:11.167Z,24.23
2019-02-21T00:25:14.862Z,24.90
2019-02-21T00:26:18.500Z,24.73
2019-02-21T00:27:22.133Z,22.77
2019-02-21T00:28:25.836Z,26.63
2019-02-21T00:29:29.480Z,25.10
2019-02-21T00:30:35.418Z,23.70
2019-02-21T00:31:40.168Z,26.53
2019-02-21T00:32:43.852Z,30.70
2019-02-21T00:33:47.502Z,24.02
2019-02-21T00:34:51.146Z,25.50
2019-02-21T00:35:54.813Z,27.30
2019-02-21T00:36:58.461Z,28.95
2019-02-21T00:38:02.142Z,30.88
2019-02-21T00:39:06.710Z,27.13
2019-02-21T00:40:10.551Z,30.12
2019-02-21T00:41:14.232Z,31.65
2019-02-21T00:42:17.886Z,27.70
2019-02-21T00:43:21.517Z,33.97
2019-02-21T00:44:25.165Z,29.92
2019-02-21T00:45:28.761Z,26.15
2019-02-21T00:46:33.744Z,31.27
2019-02-21T00:47:37.294Z,29.03
2019-02-21T00:48:40.928Z,27.50
2019-02-21T00:49:44.576Z,28.12
2019-02-21T00:50:48.210Z,26.30
2019-02-21T00:51:51.886Z,24.13
2019-02-21T00:52:55.553Z,20.68
2019-02-21T00:53:59.193Z,28.32
2019-02-21T00:55:02.876Z,23.12
2019-02-21T00:56:06.518Z,23.02
2019-02-21T00:57:10.619Z,23.67
2019-02-21T00:58:14.263Z,29.82
2019-02-21T00:59:17.906Z,26.73
2019-02-21T01:00:21.563Z,25.62
2019-02-21T01:01:25.183Z,25.33
2019-02-21T01:02:28.933Z,23.57
2019-02-21T01:03:33.021Z,24.72
2019-02-21T01:04:36.665Z,25.40
2019-02-21T01:05:40.759Z,21.87
2019-02-21T01:06:44.399Z,28.50
2019-02-21T01:07:48.115Z,21.17
2019-02-21T01:08:51.760Z,24.60
2019-02-21T01:09:55.467Z,25.37
2019-02-21T01:10:59.123Z,19.17
2019-02-21T01:12:02.765Z,20.65
2019-02-21T01:13:06.815Z,21.48
2019-02-21T01:14:10.650Z,22.95
2019-02-21T01:15:14.300Z,21.75
2019-02-21T01:16:17.950Z,24.15
2019-02-21T01:17:21.597Z,24.20
2019-02-21T01:18:25.280Z,17.17
2019-02-21T01:19:28.924Z,20.40
2019-02-21T01:20:32.569Z,22.32
2019-02-21T01:21:36.217Z,21.15
2019-02-21T01:22:39.924Z,18.82
2019-02-21T01:23:43.601Z,21.73
2019-02-21T01:24:47.253Z,27.02
2019-02-21T01:25:50.894Z,17.27
2019-02-21T01:26:54.529Z,18.37
2019-02-21T01:27:58.170Z,22.48
2019-02-21T01:29:01.857Z,16.70
2019-02-21T01:30:06.401Z,19.07
2019-02-21T01:31:10.050Z,22.50
2019-02-21T01:32:14.163Z,17.92
2019-02-21T01:33:17.802Z,31.23
2019-02-21T01:34:21.410Z,20.90
2019-02-21T01:35:25.048Z,25.35
2019-02-21T01:36:28.692Z,21.27
2019-02-21T01:37:32.326Z,21.47
2019-02-21T01:38:35.963Z,20.43
2019-02-21T01:39:39.635Z,22.90
2019-02-21T01:40:43.279Z,21.80
2019-02-21T01:41:46.931Z,22.35
2019-02-21T01:42:50.560Z,22.33
2019-02-21T01:43:54.255Z,22.62
2019-02-21T01:44:57.815Z,18.70
2019-02-21T01:46:01.462Z,16.48
2019-02-21T01:47:05.109Z,19.02
2019-02-21T01:48:08.754Z,18.32
2019-02-21T01:49:12.334Z,18.82
2019-02-21T01:50:16.030Z,22.90
2019-02-21T01:51:19.961Z,16.60
2019-02-21T01:52:23.601Z,18.90
2019-02-21T01:53:27.240Z,19.45
2019-02-21T01:54:30.875Z,18.98
2019-02-21T01:55:34.548Z,21.82
2019-02-21T01:56:38.716Z,17.50
2019-02-21T01:57:42.282Z,15.15
2019-02-21T01:58:45.860Z,19.15
2019-02-21T01:59:49.562Z,16.00
2019-02-21T02:00:53.340Z,15.28
2019-02-21T02:01:56.923Z,19.75
2019-02-21T02:03:00.559Z,14.90
2019-02-21T02:04:04.306Z,19.27
2019-02-21T02:05:08.857Z,17.17
2019-02-21T02:06:12.534Z,19.10
2019-02-21T02:07:16.264Z,21.45
2019-02-21T02:08:20.325Z,22.90
2019-02-21T02:09:23.960Z,18.50
2019-02-21T02:10:27.546Z,24.72
2019-02-21T02:11:31.142Z,18.50
2019-02-21T02:12:34.784Z,18.45
2019-02-21T02:13:38.362Z,17.90
2019-02-21T02:14:42.113Z,17.82
2019-02-21T02:15:46.030Z,21.90
2019-02-21T02:16:49.707Z,17.07
2019-02-21T02:17:53.415Z,17.48
2019-02-21T02:18:57.050Z,16.17
2019-02-21T02:20:00.700Z,16.75
2019-02-21T02:21:04.340Z,18.35
2019-02-21T02:22:08.030Z,16.80
2019-02-21T02:23:11.664Z,16.00
2019-02-21T02:24:15.317Z,19.67
2019-02-21T02:25:18.965Z,12.98
2019-02-21T02:26:22.607Z,18.37
2019-02-21T02:27:26.703Z,19.57
2019-02-21T02:28:30.332Z,15.80
2019-02-21T02:29:33.965Z,13.65
2019-02-21T02:30:37.619Z,17.67
2019-02-21T02:31:42.119Z,18.82
2019-02-21T02:32:46.153Z,16.80
2019-02-21T02:33:49.872Z,18.52
2019-02-21T02:34:53.512Z,17.40
2019-02-21T02:35:57.140Z,15.58
2019-02-21T02:37:00.705Z,18.30
2019-02-21T02:38:04.388Z,19.85
2019-02-21T02:39:08.020Z,18.65
2019-02-21T02:40:11.623Z,17.80
2019-02-21T02:41:15.285Z,17.80
2019-02-21T02:42:18.955Z,21.87
2019-02-21T02:43:22.616Z,19.48
2019-02-21T02:44:26.193Z,22.60
2019-02-21T02:45:29.842Z,29.72
2019-02-21T02:46:33.851Z,25.05
2019-02-21T02:47:37.509Z,22.85
2019-02-21T02:48:41.564Z,21.87
2019-02-21T02:49:45.138Z,21.33
2019-02-21T02:50:48.782Z,21.27
2019-02-21T02:51:52.421Z,24.40
2019-02-21T02:52:56.066Z,26.48
2019-02-21T02:53:59.738Z,31.82
2019-02-21T02:55:03.385Z,27.85
2019-02-21T02:56:07.033Z,35.88
2019-02-21T02:57:10.941Z,40.20
2019-02-21T02:58:14.932Z,39.98
2019-02-21T02:59:18.596Z,37.28
2019-02-21T03:00:22.242Z,37.10
2019-02-21T03:01:34.344Z,37.23
2019-02-21T03:02:31.263Z,38.53
2019-02-21T03:03:34.913Z,33.15
2019-02-21T03:04:38.838Z,33.08
2019-02-21T03:05:42.625Z,27.98
2019-02-21T03:06:46.282Z,27.60
2019-02-21T03:07:49.930Z,30.32
2019-02-21T03:08:53.570Z,25.65
2019-02-21T03:09:57.666Z,24.98
2019-02-21T03:11:01.336Z,19.20
2019-02-21T03:12:04.983Z,21.62
2019-02-21T03:13:08.625Z,18.40
2019-02-21T03:14:12.271Z,22.75
2019-02-21T03:15:15.951Z,21.52
2019-02-21T03:16:19.594Z,21.20
2019-02-21T03:17:23.233Z,18.92
2019-02-21T03:18:26.862Z,17.30
2019-02-21T03:19:30.503Z,19.37
2019-02-21T03:20:34.190Z,17.92
2019-02-21T03:21:37.836Z,17.95
2019-02-21T03:22:41.547Z,18.62
2019-02-21T03:23:45.258Z,20.82
2019-02-21T03:24:48.906Z,18.52
2019-02-21T03:25:52.588Z,17.60
2019-02-21T03:26:56.222Z,19.15
2019-02-21T03:27:59.860Z,20.92
2019-02-21T03:29:03.537Z,18.55
2019-02-21T03:30:12.173Z,19.07
2019-02-21T03:31:14.967Z,20.15
2019-02-21T03:32:18.597Z,24.95
2019-02-21T03:33:22.248Z,20.88
2019-02-21T03:34:25.892Z,21.23
2019-02-21T03:35:29.607Z,20.57
2019-02-21T03:36:33.278Z,19.90
2019-02-21T03:37:36.941Z,24.82
2019-02-21T03:38:40.588Z,18.65
2019-02-21T03:39:44.240Z,20.20
2019-02-21T03:40:47.804Z,20.77
2019-02-21T03:41:51.918Z,17.12
2019-02-21T03:42:55.559Z,18.55
2019-02-21T03:43:59.202Z,19.37
2019-02-21T03:45:02.832Z,18.65
2019-02-21T03:46:06.480Z,19.05
2019-02-21T03:47:10.163Z,18.42
2019-02-21T03:48:14.139Z,20.10
2019-02-21T03:49:18.149Z,22.48
2019-02-21T03:50:21.807Z,27.05
2019-02-21T03:51:28.103Z,25.75
2019-02-21T03:52:31.803Z,25.40
2019-02-21T03:53:35.449Z,23.92
2019-02-21T03:54:39.088Z,25.45
2019-02-21T03:55:42.896Z,27.20
2019-02-21T03:56:46.958Z,23.52
2019-02-21T03:57:50.737Z,26.05
2019-02-21T03:58:54.372Z,24.82
2019-02-21T03:59:58.052Z,23.90
2019-02-21T04:01:01.644Z,21.95
2019-02-21T04:02:05.899Z,22.37
2019-02-21T04:03:09.634Z,24.92
2019-02-21T04:04:13.275Z,20.20
2019-02-21T04:05:18.143Z,24.70
2019-02-21T04:06:21.890Z,23.40
2019-02-21T04:07:25.538Z,26.07
2019-02-21T04:08:29.220Z,25.35
2019-02-21T04:09:32.782Z,27.13
2019-02-21T04:10:36.420Z,28.47
2019-02-21T04:11:40.400Z,27.73
2019-02-21T04:12:43.975Z,24.80
2019-02-21T04:13:47.645Z,24.65
2019-02-21T04:14:51.276Z,25.35
2019-02-21T04:15:55.088Z,26.65
2019-02-21T04:16:58.728Z,29.07
2019-02-21T04:18:02.441Z,24.50
2019-02-21T04:19:06.127Z,26.93
2019-02-21T04:20:10.564Z,25.68
2019-02-21T04:21:14.193Z,27.48
2019-02-21T04:22:17.764Z,31.80
2019-02-21T04:23:21.402Z,48.68
2019-02-21T04:24:25.067Z,32.85
2019-02-21T04:25:28.702Z,31.70
2019-02-21T04:26:32.342Z,28.57
2019-02-21T04:27:35.985Z,34.88
2019-02-21T04:28:39.624Z,26.80
2019-02-21T04:29:43.299Z,25.02
2019-02-21T04:30:46.932Z,27.05
2019-02-21T04:31:50.577Z,22.02
2019-02-21T04:32:54.161Z,21.90
2019-02-21T04:33:57.794Z,24.37
2019-02-21T04:35:01.472Z,27.55
2019-02-21T04:36:05.111Z,27.30
2019-02-21T04:37:08.758Z,22.73
2019-02-21T04:38:12.391Z,34.03
2019-02-21T04:39:16.023Z,39.92
2019-02-21T04:40:19.773Z,40.55
2019-02-21T04:41:23.447Z,34.60
2019-02-21T04:42:27.092Z,36.58
2019-02-21T04:43:30.661Z,32.30
2019-02-21T04:44:34.223Z,32.65
2019-02-21T04:45:37.981Z,33.55
2019-02-21T04:46:41.617Z,30.27
2019-02-21T04:47:45.252Z,36.20
2019-02-21T04:48:48.889Z,32.63
2019-02-21T04:49:52.522Z,38.63
2019-02-21T04:50:56.232Z,34.05
2019-02-21T04:51:59.851Z,36.80
2019-02-21T04:53:03.486Z,47.00
2019-02-21T04:54:06.987Z,42.55
2019-02-21T04:55:10.626Z,46.45
2019-02-21T04:56:14.334Z,44.35
2019-02-21T04:57:17.906Z,45.10
2019-02-21T04:58:21.546Z,46.05
2019-02-21T04:59:25.108Z,46.68
2019-02-21T05:00:28.757Z,41.18
2019-02-21T05:01:32.417Z,42.05
2019-02-21T05:02:36.069Z,50.35
2019-02-21T05:03:39.678Z,40.98
2019-02-21T05:04:43.316Z,49.85
2019-02-21T05:05:46.881Z,50.20
2019-02-21T05:06:50.649Z,45.10
2019-02-21T05:07:54.215Z,57.65
2019-02-21T05:08:57.845Z,51.02
2019-02-21T05:10:01.523Z,44.98
2019-02-21T05:11:05.165Z,48.55
2019-02-21T05:12:08.830Z,50.43
2019-02-21T05:13:12.470Z,49.88
2019-02-21T05:14:16.105Z,50.60
2019-02-21T05:15:19.747Z,50.25
2019-02-21T05:16:23.375Z,46.33
2019-02-21T05:17:27.047Z,51.68
2019-02-21T05:18:30.684Z,45.20
2019-02-21T05:19:34.821Z,45.25
2019-02-21T05:20:38.461Z,40.70
2019-02-21T05:21:42.097Z,47.75
2019-02-21T05:22:45.741Z,46.20
2019-02-21T05:23:49.394Z,44.50
2019-02-21T05:24:53.027Z,48.10
2019-02-21T05:25:56.668Z,48.38
2019-02-21T05:27:07.932Z,47.73
2019-02-21T05:28:22.100Z,36.03
2019-02-21T05:29:25.777Z,36.05
2019-02-21T05:30:29.424Z,37.50
2019-02-21T05:31:34.702Z,37.25
2019-02-21T05:32:42.978Z,34.60
2019-02-21T05:33:57.186Z,32.48
2019-02-21T05:35:05.141Z,33.92
2019-02-21T05:36:26.525Z,32.28
2019-02-21T05:37:34.255Z,34.40
2019-02-21T05:38:42.242Z,37.25
2019-02-21T05:40:03.811Z,42.25
2019-02-21T05:41:15.105Z,37.28
2019-02-21T05:42:22.992Z,39.03
2019-02-21T05:43:31.612Z,36.42
2019-02-21T05:44:36.977Z,35.80
2019-02-21T05:45:42.289Z,45.67
2019-02-21T05:46:56.317Z,54.77
2019-02-21T05:48:01.586Z,49.10
2019-02-21T05:49:12.763Z,50.63
2019-02-21T05:50:29.873Z,77.03
2019-02-21T05:51:35.096Z,79.05
2019-02-21T05:52:55.666Z,64.92
2019-02-21T05:54:00.943Z,62.38
2019-02-21T05:55:06.818Z,57.45
2019-02-21T05:56:17.642Z,61.20
2019-02-21T05:57:32.065Z,61.05
2019-02-21T05:58:43.544Z,63.55
2019-02-21T05:59:48.819Z,63.33
2019-02-21T06:00:54.107Z,51.88
2019-02-21T06:02:01.985Z,53.33
2019-02-21T06:03:13.286Z,60.28
2019-02-21T06:04:21.101Z,50.23
2019-02-21T06:05:26.378Z,51.53
2019-02-21T06:06:31.762Z,65.17
2019-02-21T06:07:53.149Z,65.75
2019-02-21T06:08:58.398Z,59.63
2019-02-21T06:10:19.918Z,60.60
2019-02-21T06:11:31.254Z,58.90
2019-02-21T06:12:39.077Z,60.88
2019-02-21T06:13:47.552Z,60.50
2019-02-21T06:15:08.030Z,60.35
2019-02-21T06:16:22.142Z,48.05
2019-02-21T06:17:28.278Z,49.45
2019-02-21T06:18:33.557Z,54.13
2019-02-21T06:19:48.173Z,52.85
2019-02-21T06:20:57.630Z,55.67
2019-02-21T06:22:21.307Z,51.68
2019-02-21T06:23:32.395Z,56.83
2019-02-21T06:24:40.320Z,58.55
2019-02-21T06:25:51.928Z,62.55
2019-02-21T06:27:04.544Z,59.27
2019-02-21T06:28:12.341Z,61.95
2019-02-21T06:29:17.543Z,58.17
2019-02-21T06:30:22.754Z,62.15
2019-02-21T06:31:26.394Z,62.40
2019-02-21T06:32:30.002Z,58.13
2019-02-21T06:33:33.641Z,58.28
2019-02-21T06:34:37.210Z,61.50
2019-02-21T06:35:40.853Z,62.40
2019-02-21T06:36:44.496Z,92.97
2019-02-21T06:37:48.105Z,86.10
2019-02-21T06:38:51.669Z,81.80
2019-02-21T06:39:55.317Z,98.50
2019-02-21T06:40:58.936Z,84.67
2019-02-21T06:42:02.585Z,74.62
2019-02-21T06:43:06.255Z,72.15
2019-02-21T06:44:09.889Z,73.70
2019-02-21T06:45:13.726Z,71.40
2019-02-21T06:46:17.305Z,64.25
2019-02-21T06:47:21.287Z,78.75
2019-02-21T06:48:25.018Z,75.57
2019-02-21T06:49:32.428Z,81.40
2019-02-21T06:50:34.282Z,82.75
2019-02-21T06:51:38.001Z,80.62
2019-02-21T06:52:41.502Z,83.47
2019-02-21T06:53:45.179Z,91.53
2019-02-21T06:54:48.825Z,89.30
2019-02-21T06:55:52.476Z,96.65
2019-02-21T06:56:56.428Z,93.12
2019-02-21T06:58:00.154Z,79.47
2019-02-21T06:59:03.808Z,103.80
2019-02-21T07:00:07.567Z,99.03
2019-02-21T07:01:11.210Z,106.05
2019-02-21T07:02:14.861Z,99.22
2019-02-21T07:03:18.514Z,88.95
2019-02-21T07:04:22.130Z,69.72
2019-02-21T07:05:25.770Z,67.50
2019-02-21T07:06:32.237Z,58.68
2019-02-21T07:07:34.780Z,69.72
2019-02-21T07:08:40.109Z,67.82
2019-02-21T07:09:43.863Z,61.95
2019-02-21T07:10:47.491Z,66.42
2019-02-21T07:11:51.132Z,74.70
2019-02-21T07:12:54.763Z,69.77
2019-02-21T07:13:58.402Z,66.90
2019-02-21T07:15:02.256Z,51.95
2019-02-21T07:16:05.853Z,62.67
2019-02-21T07:17:09.413Z,61.60
2019-02-21T07:18:13.051Z,55.47
2019-02-21T07:19:16.694Z,58.97
2019-02-21T07:20:20.299Z,60.67
2019-02-21T07:21:24.021Z,72.27
2019-02-21T07:22:27.657Z,67.80
2019-02-21T07:23:42.799Z,54.67
2019-02-21T07:24:38.505Z,60.87
2019-02-21T07:25:46.253Z,56.90
2019-02-21T07:26:49.900Z,50.37
2019-02-21T07:27:53.464Z,57.13
2019-02-21T07:28:58.359Z,52.07
2019-02-21T07:30:02.234Z,53.10
2019-02-21T07:31:05.897Z,55.60
2019-02-21T07:32:09.909Z,58.23
2019-02-21T07:33:13.551Z,58.60
2019-02-21T07:34:17.577Z,60.03
2019-02-21T07:35:21.589Z,48.90
2019-02-21T07:36:25.244Z,53.33
2019-02-21T07:37:28.900Z,61.83
2019-02-21T07:38:32.549Z,53.63
2019-02-21T07:39:36.571Z,52.93
2019-02-21T07:40:40.299Z,52.73
2019-02-21T07:41:43.971Z,45.83
2019-02-21T07:42:48.211Z,51.03
2019-02-21T07:43:52.069Z,46.00
2019-02-21T07:44:55.800Z,39.90
2019-02-21T07:45:59.489Z,43.57
2019-02-21T07:47:03.157Z,49.63
2019-02-21T07:48:06.803Z,47.27
2019-02-21T07:49:10.444Z,41.67
2019-02-21T07:50:14.075Z,44.73
2019-02-21T07:51:17.709Z,43.27
2019-02-21T07:52:21.386Z,41.67
2019-02-21T07:53:24.949Z,41.47
2019-02-21T07:54:28.657Z,43.90
2019-02-21T07:55:32.295Z,40.73
2019-02-21T07:56:41.926Z,42.03
2019-02-21T07:57:41.314Z,44.50
2019-02-21T07:58:44.871Z,36.93
2019-02-21T07:59:48.507Z,35.87
2019-02-21T08:00:54.030Z,42.47
2019-02-21T08:01:57.514Z,39.80
2019-02-21T08:03:01.167Z,44.50
2019-02-21T08:04:04.906Z,34.03
2019-02-21T08:05:09.055Z,40.53
2019-02-21T08:06:12.709Z,40.33
2019-02-21T08:07:16.346Z,40.73
2019-02-21T08:08:21.031Z,34.00
2019-02-21T08:09:24.758Z,36.67
2019-02-21T08:10:33.753Z,36.07
2019-02-21T08:11:33.729Z,32.93
2019-02-21T08:12:37.367Z,38.40
2019-02-21T08:13:41.013Z,40.53
2019-02-21T08:14:45.474Z,32.53
2019-02-21T08:15:49.119Z,35.67
2019-02-21T08:16:52.723Z,33.57
2019-02-21T08:17:56.365Z,35.77
2019-02-21T08:19:00.005Z,35.07
2019-02-21T08:20:08.301Z,29.97
2019-02-21T08:21:09.161Z,28.83
2019-02-21T08:22:12.854Z,30.37
2019-02-21T08:23:16.495Z,24.13
2019-02-21T08:24:20.129Z,22.90
2019-02-21T08:25:24.156Z,16.83
2019-02-21T08:26:27.796Z,18.57
2019-02-21T08:27:31.463Z,12.97
2019-02-21T08:28:35.094Z,23.40
2019-02-21T08:29:38.731Z,20.23
2019-02-21T08:30:42.362Z,25.20
2019-02-21T08:31:45.996Z,20.13
2019-02-21T08:32:51.310Z,17.27
2019-02-21T08:34:04.293Z,16.50
2019-02-21T08:35:07.681Z,15.20
2019-02-21T08:36:11.317Z,17.10
2019-02-21T08:37:14.962Z,14.37
2019-02-21T08:38:18.635Z,23.30
2019-02-21T08:39:22.269Z,16.03
2019-02-21T08:40:25.903Z,19.67
2019-02-21T08:41:29.473Z,29.77
2019-02-21T08:42:33.115Z,20.30
2019-02-21T08:43:37.376Z,16.07
2019-02-21T08:44:41.095Z,15.90
2019-02-21T08:45:44.803Z,19.60
2019-02-21T08:46:48.457Z,21.03
2019-02-21T08:47:52.093Z,23.97
2019-02-21T08:48:55.709Z,28.17
2019-02-21T08:49:59.834Z,24.57
2019-02-21T08:51:06.121Z,27.37
2019-02-21T08:52:09.057Z,20.47
2019-02-21T08:53:13.110Z,15.83
2019-02-21T08:54:16.939Z,15.43
2019-02-21T08:55:20.616Z,15.13
2019-02-21T08:56:24.258Z,17.27
2019-02-21T08:57:27.826Z,15.67
2019-02-21T08:58:31.467Z,18.27
2019-02-21T08:59:35.145Z,20.60
2019-02-21T09:00:38.786Z,14.97
2019-02-21T09:01:42.435Z,21.93
2019-02-21T09:02:46.081Z,22.70
2019-02-21T09:03:49.651Z,18.93
2019-02-21T09:04:53.323Z,22.47
2019-02-21T09:05:56.958Z,23.63
2019-02-21T09:07:00.534Z,34.27
2019-02-21T09:08:04.374Z,21.63
2019-02-21T09:09:08.424Z,23.87
2019-02-21T09:10:13.088Z,22.80
2019-02-21T09:11:19.513Z,15.70
2019-02-21T09:12:22.088Z,18.37
2019-02-21T09:13:25.724Z,20.43
2019-02-21T09:14:29.371Z,18.17
2019-02-21T09:15:33.036Z,16.70
2019-02-21T09:16:36.686Z,21.83
2019-02-21T09:17:40.325Z,19.63
2019-02-21T09:18:43.970Z,19.37
2019-02-21T09:19:47.608Z,19.07
2019-02-21T09:20:51.337Z,23.40
2019-02-21T09:21:54.979Z,15.10
2019-02-21T09:22:58.561Z,15.00
2019-02-21T09:24:02.195Z,18.30
2019-02-21T09:25:08.805Z,18.47
2019-02-21T09:26:12.467Z,17.77
2019-02-21T09:27:16.490Z,15.77
2019-02-21T09:28:20.142Z,17.10
2019-02-21T09:29:24.173Z,16.17
2019-02-21T09:30:27.812Z,20.87
2019-02-21T09:31:31.416Z,19.37
2019-02-21T09:32:35.119Z,16.03
2019-02-21T09:33:38.819Z,17.70
2019-02-21T09:34:42.388Z,16.37
2019-02-21T09:35:46.025Z,20.83
2019-02-21T09:36:49.712Z,18.00
2019-02-21T09:37:53.354Z,19.30
2019-02-21T09:38:56.918Z,16.40
2019-02-21T09:40:00.908Z,27.23
2019-02-21T09:41:04.843Z,16.57
2019-02-21T09:42:08.580Z,19.63
2019-02-21T09:43:12.314Z,19.63
2019-02-21T09:44:18.119Z,19.40
2019-02-21T09:45:21.327Z,17.40
2019-02-21T09:46:24.969Z,14.67
2019-02-21T09:47:30.988Z,19.03
2019-02-21T09:48:34.018Z,20.93
2019-02-21T09:49:37.663Z,21.27
2019-02-21T09:50:41.310Z,15.47
2019-02-21T09:51:44.941Z,17.43
2019-02-21T09:52:48.618Z,16.57
2019-02-21T09:53:52.254Z,18.70
2019-02-21T09:54:55.902Z,18.57
2019-02-21T09:55:59.541Z,17.30
2019-02-21T09:57:12.922Z,16.90
2019-02-21T09:58:09.074Z,15.40
2019-02-21T09:59:12.711Z,15.67
2019-02-21T10:00:21.564Z,19.27
2019-02-21T10:01:25.233Z,18.10
2019-02-21T10:02:28.830Z,16.80
2019-02-21T10:03:32.515Z,18.20
2019-02-21T10:04:36.144Z,16.10
2019-02-21T10:05:39.814Z,15.33
2019-02-21T10:06:43.423Z,16.00
2019-02-21T10:07:47.061Z,13.57
2019-02-21T10:08:50.755Z,17.13
2019-02-21T10:09:54.383Z,16.73
2019-02-21T10:11:00.600Z,14.90
2019-02-21T10:12:03.388Z,18.40
2019-02-21T10:13:07.060Z,16.43
2019-02-21T10:14:10.696Z,16.43
2019-02-21T10:15:16.028Z,14.70
2019-02-21T10:16:19.668Z,17.27
2019-02-21T10:17:23.310Z,13.33
2019-02-21T10:18:26.961Z,14.00
2019-02-21T10:19:30.599Z,15.43
2019-02-21T10:20:34.226Z,14.00
2019-02-21T10:21:37.798Z,21.60
2019-02-21T10:22:41.446Z,16.37
2019-02-21T10:23:45.138Z,17.43
2019-02-21T10:24:50.184Z,15.13
2019-02-21T10:25:53.945Z,16.90
2019-02-21T10:26:57.577Z,17.20
2019-02-21T10:28:01.215Z,13.77
2019-02-21T10:29:04.912Z,13.17
2019-02-21T10:30:13.407Z,13.43
2019-02-21T10:31:17.188Z,14.83
2019-02-21T10:32:20.828Z,14.50
2019-02-21T10:33:25.415Z,18.30
2019-02-21T10:34:29.221Z,20.73
2019-02-21T10:35:32.864Z,14.20
2019-02-21T10:36:36.538Z,12.33
2019-02-21T10:37:40.169Z,15.27
2019-02-21T10:38:43.802Z,13.27
2019-02-21T10:39:47.993Z,13.23
2019-02-21T10:40:51.685Z,14.70
2019-02-21T10:41:55.332Z,14.20
2019-02-21T10:42:59.514Z,12.87
2019-02-21T10:44:03.149Z,13.33
2019-02-21T10:45:10.176Z,14.97
2019-02-21T10:46:13.815Z,15.77
2019-02-21T10:47:17.449Z,13.73
2019-02-21T10:48:21.112Z,13.37
2019-02-21T10:49:24.751Z,15.40
2019-02-21T10:50:28.459Z,12.67
2019-02-21T10:51:32.100Z,18.40
2019-02-21T10:52:35.744Z,15.87
2019-02-21T10:53:39.410Z,18.43
2019-02-21T10:54:43.022Z,14.97
2019-02-21T10:55:48.090Z,16.63
2019-02-21T10:56:51.896Z,15.13
2019-02-21T10:57:55.539Z,13.30
2019-02-21T10:58:59.129Z,11.80
2019-02-21T11:00:03.088Z,14.30
2019-02-21T11:01:06.752Z,15.80
2019-02-21T11:02:10.379Z,18.67
2019-02-21T11:03:14.022Z,16.03
2019-02-21T11:04:17.679Z,18.40
2019-02-21T11:05:21.314Z,14.27
2019-02-21T11:06:24.976Z,11.13
2019-02-21T11:07:28.682Z,15.00
2019-02-21T11:08:32.335Z,13.33
2019-02-21T11:09:36.185Z,12.00
2019-02-21T11:10:39.856Z,12.73
2019-02-21T11:11:43.598Z,15.70
2019-02-21T11:12:47.309Z,15.97
2019-02-21T11:13:50.939Z,16.00
2019-02-21T11:14:54.580Z,12.93
2019-02-21T11:15:58.207Z,12.33
2019-02-21T11:17:01.878Z,12.23
2019-02-21T11:18:05.514Z,15.23
2019-02-21T11:19:09.238Z,15.40
2019-02-21T11:20:19.864Z,10.60
2019-02-21T11:21:23.506Z,10.50
2019-02-21T11:22:27.197Z,12.37
2019-02-21T11:23:30.819Z,11.17
2019-02-21T11:24:34.398Z,18.50
2019-02-21T11:25:38.047Z,13.40
2019-02-21T11:26:41.633Z,12.20
2019-02-21T11:27:45.307Z,11.00
2019-02-21T11:28:48.942Z,15.67
2019-02-21T11:29:52.578Z,13.50
2019-02-21T11:30:56.224Z,13.13
2019-02-21T11:32:00.230Z,13.83
2019-02-21T11:33:03.903Z,13.87
2019-02-21T11:34:07.541Z,14.23
2019-02-21T11:35:11.877Z,14.83
2019-02-21T11:36:15.525Z,17.52
2019-02-21T11:37:19.016Z,14.90
2019-02-21T11:38:22.678Z,13.70
2019-02-21T11:39:26.309Z,16.73
2019-02-21T11:40:29.949Z,12.20
2019-02-21T11:41:33.585Z,14.55
2019-02-21T11:42:37.155Z,13.07
2019-02-21T11:43:40.832Z,12.13
2019-02-21T11:44:44.472Z,16.40
2019-02-21T11:45:53.828Z,16.27
2019-02-21T11:46:53.481Z,13.60
2019-02-21T11:47:57.115Z,9.73
2019-02-21T11:49:00.797Z,10.70
2019-02-21T11:50:07.038Z,12.10
2019-02-21T11:51:10.757Z,13.70
2019-02-21T11:52:14.810Z,18.20
2019-02-21T11:53:18.451Z,12.75
2019-02-21T11:54:26.708Z,10.68
2019-02-21T11:55:29.049Z,11.77
2019-02-21T11:56:32.693Z,11.40
2019-02-21T11:57:36.333Z,11.50
2019-02-21T11:58:40.344Z,12.73
2019-02-21T11:59:44.014Z,12.73
2019-02-21T12:00:47.667Z,13.17
2019-02-21T12:01:51.309Z,11.93
2019-02-21T12:02:54.951Z,12.07
2019-02-21T12:03:58.594Z,10.33
2019-02-21T12:05:02.276Z,11.90
2019-02-21T12:06:06.299Z,9.67
2019-02-21T12:07:09.935Z,12.07
2019-02-21T12:08:13.568Z,10.30
2019-02-21T12:09:17.215Z,8.67
2019-02-21T12:10:21.172Z,10.47
2019-02-21T12:11:24.804Z,9.93
2019-02-21T12:12:28.435Z,14.53
2019-02-21T12:13:32.109Z,10.57
2019-02-21T12:14:35.737Z,11.50
2019-02-21T12:15:39.409Z,13.37
2019-02-21T12:16:43.045Z,13.87
2019-02-21T12:17:46.681Z,13.08
2019-02-21T12:18:50.281Z,15.13
2019-02-21T12:19:53.919Z,11.43
2019-02-21T12:20:57.492Z,12.93
2019-02-21T12:22:01.131Z,21.37
2019-02-21T12:23:04.764Z,17.83
2019-02-21T12:24:08.997Z,18.50
2019-02-21T12:25:23.682Z,13.45
2019-02-21T12:26:27.409Z,11.20
2019-02-21T12:27:31.051Z,13.95
2019-02-21T12:28:34.684Z,11.50
2019-02-21T12:29:38.386Z,12.88
2019-02-21T12:30:42.077Z,15.67
2019-02-21T12:31:45.712Z,10.30
2019-02-21T12:32:49.355Z,13.50
2019-02-21T12:33:52.993Z,12.53
2019-02-21T12:34:56.967Z,13.30
2019-02-21T12:36:00.609Z,10.73
2019-02-21T12:37:04.273Z,13.33
2019-02-21T12:38:07.902Z,12.43
2019-02-21T12:39:11.614Z,10.83
2019-02-21T12:40:24.726Z,12.00
2019-02-21T12:41:28.429Z,11.90
2019-02-21T12:42:32.071Z,11.13
2019-02-21T12:43:35.723Z,11.03
2019-02-21T12:44:39.364Z,10.57
2019-02-21T12:45:43.032Z,13.10
2019-02-21T12:46:46.745Z,21.07
2019-02-21T12:47:53.520Z,16.37
2019-02-21T12:48:55.841Z,14.57
2019-02-21T12:49:59.409Z,13.73
2019-02-21T12:51:03.328Z,11.83
2019-02-21T12:52:06.963Z,17.57
2019-02-21T12:53:10.610Z,26.70
2019-02-21T12:54:14.254Z,11.73
2019-02-21T12:55:27.193Z,12.13
2019-02-21T12:56:23.281Z,15.90
2019-02-21T12:57:26.998Z,19.70
2019-02-21T12:58:30.587Z,45.87
2019-02-21T12:59:34.313Z,67.97
2019-02-21T13:00:37.966Z,25.50
2019-02-21T13:01:41.652Z,23.97
2019-02-21T13:02:45.284Z,10.27
2019-02-21T13:03:49.318Z,9.27
2019-02-21T13:04:52.884Z,10.87
2019-02-21T13:05:56.522Z,17.50
2019-02-21T13:07:00.180Z,59.60
2019-02-21T13:08:03.928Z,48.87
2019-02-21T13:09:08.032Z,50.37
2019-02-21T13:10:16.210Z,50.03
2019-02-21T13:11:19.887Z,22.90
2019-02-21T13:12:23.559Z,17.97
2019-02-21T13:13:27.193Z,14.63
2019-02-21T13:14:30.830Z,17.83
2019-02-21T13:15:34.496Z,14.13
2019-02-21T13:16:38.139Z,23.20
2019-02-21T13:17:41.806Z,13.33
2019-02-21T13:18:45.449Z,12.83
2019-02-21T13:19:49.093Z,16.93
2019-02-21T13:20:52.728Z,11.57
2019-02-21T13:21:56.361Z,15.63
2019-02-21T13:23:00.029Z,12.67
2019-02-21T13:24:03.690Z,12.87
2019-02-21T13:25:09.808Z,11.13
2019-02-21T13:26:13.478Z,11.53
2019-02-21T13:27:17.100Z,11.87
2019-02-21T13:28:20.743Z,12.70
2019-02-21T13:29:24.380Z,13.00
2019-02-21T13:30:28.070Z,19.43
2019-02-21T13:31:31.735Z,19.50
2019-02-21T13:32:35.381Z,13.70
2019-02-21T13:33:38.988Z,13.37
2019-02-21T13:34:42.548Z,10.47
2019-02-21T13:35:52.807Z,14.20
2019-02-21T13:36:51.553Z,12.37
2019-02-21T13:37:55.194Z,13.77
2019-02-21T13:38:58.818Z,10.10
2019-02-21T13:40:02.744Z,14.03
2019-02-21T13:41:06.309Z,11.43
2019-02-21T13:42:09.936Z,15.87
2019-02-21T13:43:13.541Z,21.40
2019-02-21T13:44:17.215Z,25.47
2019-02-21T13:45:20.864Z,18.93
2019-02-21T13:46:24.502Z,15.83
2019-02-21T13:47:28.459Z,15.30
2019-02-21T13:48:32.119Z,14.00